30°C Temp
14°C Dewpoint
% Humidity
Temperature
16 KM/H
10 MPH
9 KTS
100°
Due East

Wind Speed
Clear
Conditions
Pressure 1021.92 (hPa) - 30.18 (in)
Visibility 6.2 (mi) - 10.0 (km)

Current Conditions
EPKT
Location 6km (3.2mi)
Metar :EPKT 071430Z 10009KT 060V130 CAVOK 30/14 Q1022
Fri 7th August 16:30 pm

Airport
  Metar Aviation API Data Provided by https://www.checkwx.com/ CSS/SVG/PHP scripts by weather34.com © 2015-2020